Spring Valley, Nevada
Current Conditions -  °F | °C
As of 1:56 PM on Monday 20 Oct 2014 (Local Time) from KLAS Reporting Station
Few Clouds Few Clouds  
Wind Chill: 85°   Ceiling: Unl
Heat Index: 85°   Visibility: 10mi
Dew Point: 41°   Wind: 7mph
Humidity: 21%   Direction: 110°ESE
Pressure: 29.84"   Gusts: NA
Location:  36.11°N, 115.24°W
Report Text: KLAS 202056Z 11006KT 10SM FEW140 29/05 A2984 RMK AO2 SLP084 T02940050 58025
Loading
Personal Weather Stations






























Interactive Weather Map
Tropical Storm Tracking
New forecast layout! Learn more

10-Day Weather Forecast

Advertisements
Track Severe Weather on mobile